»·PEaware :: N24AS KSBD-KVNY

N24AS :: KSBD-KVNY

FLIGHT INFORMATION

Flight Status: Arrived
Operator: Privately registered:
United States
More flights under this callsign
Pilot: Andrew S. (20703)
Aircraft: Unknown
(SF50)
More flights by this aircraft type
Origin: KSBD San Bernardino Intl
United States
Destination: KVNY Van Nuys
United States
More flights between these airports :: More routes between these airports
Route: +PDZ V186 VNY
File this flight plan on PilotEdge
Remarks: TEC RTE ONTP2
Altitude:
(Current/Filed)
8,000ft
Speed:
(Current/Filed)
250kts
Departed: 17-Aug-19 04:36 PM
Arrived: 17-Aug-19 05:04 PM
Distance/Time
Traveled:
63nm/0:28
Distance/Time
To Go:
Arrived

Flight Plot

Page will automatically refresh every two minutes.


Map Options




Map Legend


Flown Route
Filed Route
Departure Airport
Arrival Airport
Navaid (VOR, NDB)
Fix

Horizontal Profiles

Position Reports

Time Latitude Longitude Heading Altitude Ground
Speed
17-Aug-19 16:16 34.102165 -117.224731 93 1136ft 0kts
17-Aug-19 16:17 34.102165 -117.224731 93 1136ft 0kts
17-Aug-19 16:18 34.102165 -117.224731 93 1136ft 0kts
17-Aug-19 16:19 34.102165 -117.224731 93 1136ft 0kts
17-Aug-19 16:20 34.102165 -117.224731 94 1136ft 0kts
17-Aug-19 16:21 34.102106 -117.224788 194 1136ft 0kts
17-Aug-19 16:22 34.102106 -117.224788 194 1136ft 0kts
17-Aug-19 16:23 34.102106 -117.224788 194 1136ft 0kts
17-Aug-19 16:24 34.102106 -117.224788 194 1136ft 0kts
17-Aug-19 16:25 34.102106 -117.224788 194 1136ft 0kts
17-Aug-19 16:26 34.102106 -117.224788 194 1136ft 0kts
17-Aug-19 16:27 34.102079 -117.224796 194 1136ft 1kts
17-Aug-19 16:28 34.100777 -117.222532 69 1136ft 12kts
17-Aug-19 16:29 34.101394 -117.219755 106 1136ft 0kts
17-Aug-19 16:30 34.101394 -117.219755 107 1136ft 0kts
17-Aug-19 16:31 34.101394 -117.219755 107 1136ft 0kts
17-Aug-19 16:32 34.101394 -117.219755 107 1136ft 0kts
17-Aug-19 16:33 34.101394 -117.219755 107 1136ft 0kts
17-Aug-19 16:34 34.100413 -117.219516 198 1136ft 12kts
17-Aug-19 16:35 34.095066 -117.236656 252 1403ft 115kts
17-Aug-19 16:36 34.079267 -117.266768 224 3423ft 112kts
17-Aug-19 16:37 34.058082 -117.297447 234 5402ft 132kts
17-Aug-19 16:38 34.035940 -117.334161 235 7589ft 139kts
17-Aug-19 16:39 34.005363 -117.385125 234 7985ft 244kts
17-Aug-19 16:40 33.961767 -117.457697 234 8745ft 275kts
17-Aug-19 16:41 33.923730 -117.526260 254 8319ft 209kts
17-Aug-19 16:42 33.937313 -117.583779 290 7995ft 158kts
17-Aug-19 16:43 33.956278 -117.637554 291 8000ft 193kts
17-Aug-19 16:44 33.979160 -117.702516 290 8000ft 225kts
17-Aug-19 16:45 34.004205 -117.775618 288 8001ft 249kts
17-Aug-19 16:46 34.029367 -117.857016 288 8003ft 265kts
17-Aug-19 16:47 34.055252 -117.940956 288 7994ft 264kts
17-Aug-19 16:48 34.080784 -118.023949 288 7983ft 262kts
17-Aug-19 16:49 34.106055 -118.106764 288 7977ft 262kts
17-Aug-19 16:50 34.137858 -118.185255 319 7775ft 272kts
17-Aug-19 16:51 34.195178 -118.237341 321 6992ft 225kts
17-Aug-19 16:52 34.241802 -118.278707 321 6996ft 198kts
17-Aug-19 16:53 34.285763 -118.317579 321 7011ft 202kts
17-Aug-19 16:54 34.335375 -118.362303 321 6101ft 216kts
17-Aug-19 16:55 34.380529 -118.403517 321 6024ft 200kts
17-Aug-19 16:56 34.424894 -118.444367 321 5987ft 202kts
17-Aug-19 16:57 34.435712 -118.501799 207 5034ft 212kts
17-Aug-19 16:58 34.380374 -118.506370 175 4996ft 191kts
17-Aug-19 16:59 34.323922 -118.501076 174 3617ft 198kts
17-Aug-19 17:00 34.278899 -118.496853 174 2471ft 131kts
17-Aug-19 17:01 34.249030 -118.494057 174 1721ft 88kts
17-Aug-19 17:02 34.223802 -118.491657 176 1055ft 82kts
17-Aug-19 17:03 34.205430 -118.490005 188 806ft 27kts
17-Aug-19 17:04 34.204152 -118.491420 273 806ft 0kts
17-Aug-19 17:05 34.204152 -118.491420 273 806ft 0kts
17-Aug-19 17:06 34.204152 -118.491420 273 806ft 0kts
17-Aug-19 17:07 34.204152 -118.491420 273 806ft 0kts
17-Aug-19 17:08 34.204152 -118.491420 273 806ft 0kts
17-Aug-19 17:09 34.204152 -118.491420 273 806ft 0kts
17-Aug-19 17:10 34.204152 -118.491420 273 806ft 0kts
17-Aug-19 17:11 34.204152 -118.491420 273 806ft 0kts
17-Aug-19 17:12 34.204152 -118.491420 273 806ft 0kts
17-Aug-19 17:13 34.204152 -118.491420 273 806ft 0kts
17-Aug-19 17:14 34.204152 -118.491420 273 806ft 0kts
17-Aug-19 17:15 34.204152 -118.491420 273 806ft 0kts
17-Aug-19 17:16 34.204152 -118.491420 273 806ft 0kts
17-Aug-19 17:17 34.204152 -118.491420 273 806ft 0kts

Navigation Log

Ident Type
Flight plan parsing failed, navigation log unavailable